sensor_id;sensor_type;location;lat;lon;timestamp;temperature;humidity
45643;DHT22;31358;46.008;11.144;2023-07-22T00:02:00;17.90;99.90
45643;DHT22;31358;46.008;11.144;2023-07-22T00:04:26;18.10;99.90
45643;DHT22;31358;46.008;11.144;2023-07-22T00:06:52;18.20;99.90
45643;DHT22;31358;46.008;11.144;2023-07-22T00:09:18;18.20;99.90
45643;DHT22;31358;46.008;11.144;2023-07-22T00:11:44;18.30;99.90
45643;DHT22;31358;46.008;11.144;2023-07-22T00:14:09;18.30;99.90
45643;DHT22;31358;46.008;11.144;2023-07-22T00:16:35;18.20;99.90
45643;DHT22;31358;46.008;11.144;2023-07-22T00:19:01;18.10;99.90
45643;DHT22;31358;46.008;11.144;2023-07-22T00:21:27;17.90;99.90
45643;DHT22;31358;46.008;11.144;2023-07-22T00:23:54;17.90;99.90
45643;DHT22;31358;46.008;11.144;2023-07-22T00:26:20;18.00;99.90
45643;DHT22;31358;46.008;11.144;2023-07-22T00:28:46;18.20;99.90
45643;DHT22;31358;46.008;11.144;2023-07-22T00:31:11;18.10;99.90
45643;DHT22;31358;46.008;11.144;2023-07-22T00:33:37;18.10;99.90
45643;DHT22;31358;46.008;11.144;2023-07-22T00:36:04;18.00;99.90
45643;DHT22;31358;46.008;11.144;2023-07-22T00:38:30;17.90;99.90
45643;DHT22;31358;46.008;11.144;2023-07-22T00:40:55;18.00;99.90
45643;DHT22;31358;46.008;11.144;2023-07-22T00:43:21;18.00;99.90
45643;DHT22;31358;46.008;11.144;2023-07-22T00:45:47;18.10;99.90
45643;DHT22;31358;46.008;11.144;2023-07-22T00:48:13;18.10;99.90
45643;DHT22;31358;46.008;11.144;2023-07-22T00:50:40;18.00;99.90
45643;DHT22;31358;46.008;11.144;2023-07-22T00:53:06;17.90;99.90
45643;DHT22;31358;46.008;11.144;2023-07-22T00:55:33;18.00;99.90
45643;DHT22;31358;46.008;11.144;2023-07-22T00:58:00;17.90;99.90
45643;DHT22;31358;46.008;11.144;2023-07-22T01:00:25;17.80;99.90
45643;DHT22;31358;46.008;11.144;2023-07-22T01:02:51;17.90;99.90
45643;DHT22;31358;46.008;11.144;2023-07-22T01:05:18;17.90;99.90
45643;DHT22;31358;46.008;11.144;2023-07-22T01:07:44;18.00;99.90
45643;DHT22;31358;46.008;11.144;2023-07-22T01:10:09;17.90;99.90
45643;DHT22;31358;46.008;11.144;2023-07-22T01:12:36;17.90;99.90
45643;DHT22;31358;46.008;11.144;2023-07-22T01:15:02;18.00;99.90
45643;DHT22;31358;46.008;11.144;2023-07-22T01:17:29;18.00;99.90
45643;DHT22;31358;46.008;11.144;2023-07-22T01:19:55;18.00;99.90
45643;DHT22;31358;46.008;11.144;2023-07-22T01:22:22;18.00;99.90
45643;DHT22;31358;46.008;11.144;2023-07-22T01:24:47;17.90;99.90
45643;DHT22;31358;46.008;11.144;2023-07-22T01:27:14;17.80;99.90
45643;DHT22;31358;46.008;11.144;2023-07-22T01:29:40;17.90;99.90
45643;DHT22;31358;46.008;11.144;2023-07-22T01:32:06;17.90;99.90
45643;DHT22;31358;46.008;11.144;2023-07-22T01:34:31;17.90;99.90
45643;DHT22;31358;46.008;11.144;2023-07-22T01:36:58;17.70;99.90
45643;DHT22;31358;46.008;11.144;2023-07-22T01:39:23;17.80;99.90
45643;DHT22;31358;46.008;11.144;2023-07-22T01:41:49;17.90;99.90
45643;DHT22;31358;46.008;11.144;2023-07-22T01:44:15;17.80;99.90
45643;DHT22;31358;46.008;11.144;2023-07-22T01:46:41;17.90;99.90
45643;DHT22;31358;46.008;11.144;2023-07-22T01:49:12;17.80;99.90
45643;DHT22;31358;46.008;11.144;2023-07-22T01:51:39;17.90;99.90
45643;DHT22;31358;46.008;11.144;2023-07-22T01:54:08;17.80;99.90
45643;DHT22;31358;46.008;11.144;2023-07-22T01:56:35;17.80;99.90
45643;DHT22;31358;46.008;11.144;2023-07-22T01:59:01;17.60;99.90
45643;DHT22;31358;46.008;11.144;2023-07-22T02:01:27;17.60;99.90
45643;DHT22;31358;46.008;11.144;2023-07-22T02:03:54;17.60;99.90
45643;DHT22;31358;46.008;11.144;2023-07-22T02:06:20;17.60;99.90
45643;DHT22;31358;46.008;11.144;2023-07-22T02:08:45;17.50;99.90
45643;DHT22;31358;46.008;11.144;2023-07-22T02:11:12;17.30;99.90
45643;DHT22;31358;46.008;11.144;2023-07-22T02:13:38;17.10;99.90
45643;DHT22;31358;46.008;11.144;2023-07-22T02:16:04;17.20;99.90
45643;DHT22;31358;46.008;11.144;2023-07-22T02:18:30;17.10;99.90
45643;DHT22;31358;46.008;11.144;2023-07-22T02:20:56;17.10;99.90
45643;DHT22;31358;46.008;11.144;2023-07-22T02:23:23;17.20;99.90
45643;DHT22;31358;46.008;11.144;2023-07-22T02:25:53;17.10;99.90
45643;DHT22;31358;46.008;11.144;2023-07-22T02:28:19;17.20;99.90
45643;DHT22;31358;46.008;11.144;2023-07-22T02:30:50;16.80;99.90
45643;DHT22;31358;46.008;11.144;2023-07-22T02:33:18;16.90;99.90
45643;DHT22;31358;46.008;11.144;2023-07-22T02:35:44;16.90;99.90
45643;DHT22;31358;46.008;11.144;2023-07-22T02:38:09;16.80;99.90
45643;DHT22;31358;46.008;11.144;2023-07-22T02:40:38;16.80;99.90
45643;DHT22;31358;46.008;11.144;2023-07-22T02:43:04;16.80;99.90
45643;DHT22;31358;46.008;11.144;2023-07-22T02:45:31;16.60;99.90
45643;DHT22;31358;46.008;11.144;2023-07-22T02:47:56;16.60;99.90
45643;DHT22;31358;46.008;11.144;2023-07-22T02:50:22;16.50;99.90
45643;DHT22;31358;46.008;11.144;2023-07-22T02:52:48;16.70;99.90
45643;DHT22;31358;46.008;11.144;2023-07-22T02:55:16;16.50;99.90
45643;DHT22;31358;46.008;11.144;2023-07-22T02:57:45;16.50;99.90
45643;DHT22;31358;46.008;11.144;2023-07-22T03:00:12;16.70;99.90
45643;DHT22;31358;46.008;11.144;2023-07-22T03:02:41;16.60;99.90
45643;DHT22;31358;46.008;11.144;2023-07-22T03:05:07;16.60;99.90
45643;DHT22;31358;46.008;11.144;2023-07-22T03:07:37;16.50;99.90
45643;DHT22;31358;46.008;11.144;2023-07-22T03:10:06;16.40;99.90
45643;DHT22;31358;46.008;11.144;2023-07-22T03:12:33;16.40;99.90
45643;DHT22;31358;46.008;11.144;2023-07-22T03:14:59;16.40;99.90
45643;DHT22;31358;46.008;11.144;2023-07-22T03:17:25;16.40;99.90
45643;DHT22;31358;46.008;11.144;2023-07-22T03:19:51;16.30;99.90
45643;DHT22;31358;46.008;11.144;2023-07-22T03:22:17;16.30;99.90
45643;DHT22;31358;46.008;11.144;2023-07-22T03:24:43;16.40;99.90
45643;DHT22;31358;46.008;11.144;2023-07-22T03:27:10;16.60;99.90
45643;DHT22;31358;46.008;11.144;2023-07-22T03:29:36;16.70;99.90
45643;DHT22;31358;46.008;11.144;2023-07-22T03:32:01;16.70;99.90
45643;DHT22;31358;46.008;11.144;2023-07-22T03:34:27;16.70;99.90
45643;DHT22;31358;46.008;11.144;2023-07-22T03:36:53;16.80;99.90
45643;DHT22;31358;46.008;11.144;2023-07-22T03:39:19;16.90;99.90
45643;DHT22;31358;46.008;11.144;2023-07-22T03:41:45;16.90;99.90
45643;DHT22;31358;46.008;11.144;2023-07-22T03:44:11;16.90;99.90
45643;DHT22;31358;46.008;11.144;2023-07-22T03:46:37;17.00;99.90
45643;DHT22;31358;46.008;11.144;2023-07-22T03:49:03;17.20;99.90
45643;DHT22;31358;46.008;11.144;2023-07-22T03:51:29;17.10;99.90
45643;DHT22;31358;46.008;11.144;2023-07-22T03:53:54;17.20;99.90
45643;DHT22;31358;46.008;11.144;2023-07-22T03:56:20;17.10;99.90
45643;DHT22;31358;46.008;11.144;2023-07-22T03:58:46;17.20;99.90
45643;DHT22;31358;46.008;11.144;2023-07-22T04:01:13;17.20;99.90
45643;DHT22;31358;46.008;11.144;2023-07-22T04:03:38;17.20;99.90
45643;DHT22;31358;46.008;11.144;2023-07-22T04:06:04;17.10;99.90
45643;DHT22;31358;46.008;11.144;2023-07-22T04:08:30;17.10;99.90
45643;DHT22;31358;46.008;11.144;2023-07-22T04:10:56;17.00;99.90
45643;DHT22;31358;46.008;11.144;2023-07-22T04:13:24;16.70;99.90
45643;DHT22;31358;46.008;11.144;2023-07-22T04:15:50;16.30;99.90
45643;DHT22;31358;46.008;11.144;2023-07-22T04:18:17;16.30;99.90
45643;DHT22;31358;46.008;11.144;2023-07-22T04:20:43;16.30;99.90
45643;DHT22;31358;46.008;11.144;2023-07-22T04:23:09;16.30;99.90
45643;DHT22;31358;46.008;11.144;2023-07-22T04:25:44;16.20;99.90
45643;DHT22;31358;46.008;11.144;2023-07-22T04:28:11;16.10;99.90
45643;DHT22;31358;46.008;11.144;2023-07-22T04:30:37;16.30;99.90
45643;DHT22;31358;46.008;11.144;2023-07-22T04:33:03;16.40;99.90
45643;DHT22;31358;46.008;11.144;2023-07-22T04:35:36;16.40;99.90
45643;DHT22;31358;46.008;11.144;2023-07-22T04:38:02;16.30;99.90
45643;DHT22;31358;46.008;11.144;2023-07-22T04:40:29;16.40;99.90
45643;DHT22;31358;46.008;11.144;2023-07-22T04:42:56;16.40;99.90
45643;DHT22;31358;46.008;11.144;2023-07-22T04:45:22;16.50;99.90
45643;DHT22;31358;46.008;11.144;2023-07-22T04:47:52;16.50;99.90
45643;DHT22;31358;46.008;11.144;2023-07-22T04:50:18;16.50;99.90
45643;DHT22;31358;46.008;11.144;2023-07-22T04:52:47;16.60;99.90
45643;DHT22;31358;46.008;11.144;2023-07-22T04:55:13;16.70;99.90
45643;DHT22;31358;46.008;11.144;2023-07-22T04:57:40;16.70;99.90
45643;DHT22;31358;46.008;11.144;2023-07-22T05:00:07;16.80;99.90
45643;DHT22;31358;46.008;11.144;2023-07-22T05:02:40;17.00;99.90
45643;DHT22;31358;46.008;11.144;2023-07-22T05:05:06;17.10;99.90
45643;DHT22;31358;46.008;11.144;2023-07-22T05:07:32;17.30;99.90
45643;DHT22;31358;46.008;11.144;2023-07-22T05:09:58;17.40;99.90
45643;DHT22;31358;46.008;11.144;2023-07-22T05:12:24;17.50;99.90
45643;DHT22;31358;46.008;11.144;2023-07-22T05:14:49;17.50;99.90
45643;DHT22;31358;46.008;11.144;2023-07-22T05:17:15;17.50;99.90
45643;DHT22;31358;46.008;11.144;2023-07-22T05:19:41;17.60;99.90
45643;DHT22;31358;46.008;11.144;2023-07-22T05:22:07;17.50;99.90
45643;DHT22;31358;46.008;11.144;2023-07-22T05:24:33;17.60;99.90
45643;DHT22;31358;46.008;11.144;2023-07-22T05:26:58;17.80;99.90
45643;DHT22;31358;46.008;11.144;2023-07-22T05:29:24;17.70;99.90
45643;DHT22;31358;46.008;11.144;2023-07-22T05:31:50;17.80;99.90
45643;DHT22;31358;46.008;11.144;2023-07-22T05:34:16;17.90;99.90
45643;DHT22;31358;46.008;11.144;2023-07-22T05:36:41;18.10;99.90
45643;DHT22;31358;46.008;11.144;2023-07-22T05:39:07;18.10;99.90
45643;DHT22;31358;46.008;11.144;2023-07-22T05:41:33;18.20;99.90
45643;DHT22;31358;46.008;11.144;2023-07-22T05:43:59;18.30;99.90
45643;DHT22;31358;46.008;11.144;2023-07-22T05:46:25;18.40;99.90
45643;DHT22;31358;46.008;11.144;2023-07-22T05:48:51;18.30;99.90
45643;DHT22;31358;46.008;11.144;2023-07-22T05:51:17;18.30;99.90
45643;DHT22;31358;46.008;11.144;2023-07-22T05:53:43;18.30;99.90
45643;DHT22;31358;46.008;11.144;2023-07-22T05:56:09;18.30;99.90
45643;DHT22;31358;46.008;11.144;2023-07-22T05:58:35;18.40;99.90
45643;DHT22;31358;46.008;11.144;2023-07-22T06:01:01;18.40;99.90
45643;DHT22;31358;46.008;11.144;2023-07-22T06:03:26;18.50;99.90
45643;DHT22;31358;46.008;11.144;2023-07-22T06:05:52;18.50;99.90
45643;DHT22;31358;46.008;11.144;2023-07-22T06:08:18;18.70;99.90
45643;DHT22;31358;46.008;11.144;2023-07-22T06:10:44;18.80;99.90
45643;DHT22;31358;46.008;11.144;2023-07-22T06:13:09;18.80;99.90
45643;DHT22;31358;46.008;11.144;2023-07-22T06:15:35;18.90;99.90
45643;DHT22;31358;46.008;11.144;2023-07-22T06:18:01;18.90;99.90
45643;DHT22;31358;46.008;11.144;2023-07-22T06:20:27;18.90;99.90
45643;DHT22;31358;46.008;11.144;2023-07-22T06:22:53;19.00;99.90
45643;DHT22;31358;46.008;11.144;2023-07-22T06:25:20;18.70;99.90
45643;DHT22;31358;46.008;11.144;2023-07-22T06:27:46;18.90;99.90
45643;DHT22;31358;46.008;11.144;2023-07-22T06:30:12;19.00;99.90
45643;DHT22;31358;46.008;11.144;2023-07-22T06:32:38;18.90;99.90
45643;DHT22;31358;46.008;11.144;2023-07-22T06:35:04;18.90;99.90
45643;DHT22;31358;46.008;11.144;2023-07-22T06:37:30;19.10;99.90
45643;DHT22;31358;46.008;11.144;2023-07-22T06:39:56;19.30;99.90
45643;DHT22;31358;46.008;11.144;2023-07-22T06:42:21;19.40;99.90
45643;DHT22;31358;46.008;11.144;2023-07-22T06:44:47;19.60;99.90
45643;DHT22;31358;46.008;11.144;2023-07-22T06:47:13;19.60;99.90
45643;DHT22;31358;46.008;11.144;2023-07-22T06:49:40;19.70;99.90
45643;DHT22;31358;46.008;11.144;2023-07-22T06:52:07;19.60;99.90
45643;DHT22;31358;46.008;11.144;2023-07-22T06:54:33;19.60;99.90
45643;DHT22;31358;46.008;11.144;2023-07-22T06:56:59;19.80;99.90
45643;DHT22;31358;46.008;11.144;2023-07-22T06:59:25;20.10;99.90
45643;DHT22;31358;46.008;11.144;2023-07-22T07:01:52;20.10;99.90
45643;DHT22;31358;46.008;11.144;2023-07-22T07:04:18;20.10;99.90
45643;DHT22;31358;46.008;11.144;2023-07-22T07:06:43;20.00;99.90
45643;DHT22;31358;46.008;11.144;2023-07-22T07:09:11;19.90;99.90
45643;DHT22;31358;46.008;11.144;2023-07-22T07:11:37;19.90;99.90
45643;DHT22;31358;46.008;11.144;2023-07-22T07:14:03;20.00;99.90
45643;DHT22;31358;46.008;11.144;2023-07-22T07:16:30;20.00;99.90
45643;DHT22;31358;46.008;11.144;2023-07-22T07:18:57;20.20;99.90
45643;DHT22;31358;46.008;11.144;2023-07-22T07:21:23;20.50;99.90
45643;DHT22;31358;46.008;11.144;2023-07-22T07:23:50;20.80;99.90
45643;DHT22;31358;46.008;11.144;2023-07-22T07:26:16;21.00;99.90
45643;DHT22;31358;46.008;11.144;2023-07-22T07:28:42;21.20;99.90
45643;DHT22;31358;46.008;11.144;2023-07-22T07:31:08;21.60;99.90
45643;DHT22;31358;46.008;11.144;2023-07-22T07:33:34;22.20;99.90
45643;DHT22;31358;46.008;11.144;2023-07-22T07:36:00;23.20;99.90
45643;DHT22;31358;46.008;11.144;2023-07-22T07:38:26;24.30;99.90
45643;DHT22;31358;46.008;11.144;2023-07-22T07:40:57;25.10;99.60
45643;DHT22;31358;46.008;11.144;2023-07-22T07:43:23;26.40;98.30
45643;DHT22;31358;46.008;11.144;2023-07-22T07:45:50;27.00;97.30
45643;DHT22;31358;46.008;11.144;2023-07-22T07:48:16;26.80;97.10
45643;DHT22;31358;46.008;11.144;2023-07-22T07:50:43;27.10;96.80
45643;DHT22;31358;46.008;11.144;2023-07-22T07:53:08;27.50;96.40
45643;DHT22;31358;46.008;11.144;2023-07-22T07:55:34;27.20;96.10
45643;DHT22;31358;46.008;11.144;2023-07-22T07:58:00;26.70;96.30
45643;DHT22;31358;46.008;11.144;2023-07-22T08:00:25;26.30;97.30
45643;DHT22;31358;46.008;11.144;2023-07-22T08:02:51;26.20;96.90
45643;DHT22;31358;46.008;11.144;2023-07-22T08:05:17;26.30;96.70
45643;DHT22;31358;46.008;11.144;2023-07-22T08:07:43;26.30;96.30
45643;DHT22;31358;46.008;11.144;2023-07-22T08:10:08;25.70;96.80
45643;DHT22;31358;46.008;11.144;2023-07-22T08:12:35;23.80;99.00
45643;DHT22;31358;46.008;11.144;2023-07-22T08:15:03;24.60;98.60
45643;DHT22;31358;46.008;11.144;2023-07-22T08:17:29;25.10;98.70
45643;DHT22;31358;46.008;11.144;2023-07-22T08:19:54;24.70;98.70
45643;DHT22;31358;46.008;11.144;2023-07-22T08:22:20;24.20;99.40
45643;DHT22;31358;46.008;11.144;2023-07-22T08:24:46;23.50;99.90
45643;DHT22;31358;46.008;11.144;2023-07-22T08:27:11;22.90;99.90
45643;DHT22;31358;46.008;11.144;2023-07-22T08:29:37;23.00;99.90
45643;DHT22;31358;46.008;11.144;2023-07-22T08:32:03;23.10;99.90
45643;DHT22;31358;46.008;11.144;2023-07-22T08:34:29;23.40;99.90
45643;DHT22;31358;46.008;11.144;2023-07-22T08:36:54;23.50;99.90
45643;DHT22;31358;46.008;11.144;2023-07-22T08:39:20;23.60;99.90
45643;DHT22;31358;46.008;11.144;2023-07-22T08:41:49;23.70;99.90
45643;DHT22;31358;46.008;11.144;2023-07-22T08:44:19;23.70;99.90
45643;DHT22;31358;46.008;11.144;2023-07-22T08:46:45;23.40;99.90
45643;DHT22;31358;46.008;11.144;2023-07-22T08:49:12;23.40;99.90
45643;DHT22;31358;46.008;11.144;2023-07-22T08:51:39;23.50;99.90
45643;DHT22;31358;46.008;11.144;2023-07-22T08:54:05;23.70;99.90
45643;DHT22;31358;46.008;11.144;2023-07-22T08:56:31;23.80;99.90
45643;DHT22;31358;46.008;11.144;2023-07-22T08:58:58;24.30;99.90
45643;DHT22;31358;46.008;11.144;2023-07-22T09:01:24;24.40;99.90
45643;DHT22;31358;46.008;11.144;2023-07-22T09:03:50;24.20;99.90
45643;DHT22;31358;46.008;11.144;2023-07-22T09:06:19;24.20;99.90
45643;DHT22;31358;46.008;11.144;2023-07-22T09:08:45;23.90;99.90
45643;DHT22;31358;46.008;11.144;2023-07-22T09:11:12;23.80;99.70
45643;DHT22;31358;46.008;11.144;2023-07-22T09:13:38;23.60;99.90
45643;DHT22;31358;46.008;11.144;2023-07-22T09:16:06;23.50;99.90
45643;DHT22;31358;46.008;11.144;2023-07-22T09:18:35;23.50;99.90
45643;DHT22;31358;46.008;11.144;2023-07-22T09:21:01;23.50;99.90
45643;DHT22;31358;46.008;11.144;2023-07-22T09:23:37;23.60;99.90
45643;DHT22;31358;46.008;11.144;2023-07-22T09:26:13;23.60;99.90
45643;DHT22;31358;46.008;11.144;2023-07-22T09:28:56;23.50;99.90
45643;DHT22;31358;46.008;11.144;2023-07-22T09:31:26;23.80;99.90
45643;DHT22;31358;46.008;11.144;2023-07-22T09:33:54;23.90;99.90
45643;DHT22;31358;46.008;11.144;2023-07-22T09:36:20;24.10;99.90
45643;DHT22;31358;46.008;11.144;2023-07-22T09:38:57;24.00;99.90
45643;DHT22;31358;46.008;11.144;2023-07-22T09:41:27;24.20;99.90
45643;DHT22;31358;46.008;11.144;2023-07-22T09:43:53;24.40;99.90
45643;DHT22;31358;46.008;11.144;2023-07-22T09:46:19;24.50;99.90
45643;DHT22;31358;46.008;11.144;2023-07-22T09:48:45;24.30;99.60
45643;DHT22;31358;46.008;11.144;2023-07-22T09:51:15;24.10;99.40
45643;DHT22;31358;46.008;11.144;2023-07-22T09:53:51;24.20;99.60
45643;DHT22;31358;46.008;11.144;2023-07-22T09:56:24;24.50;99.60
45643;DHT22;31358;46.008;11.144;2023-07-22T09:58:51;24.20;99.90
45643;DHT22;31358;46.008;11.144;2023-07-22T10:01:20;24.30;99.90
45643;DHT22;31358;46.008;11.144;2023-07-22T10:03:52;24.30;99.90
45643;DHT22;31358;46.008;11.144;2023-07-22T10:06:21;24.20;99.90
45643;DHT22;31358;46.008;11.144;2023-07-22T10:08:49;24.00;99.90
45643;DHT22;31358;46.008;11.144;2023-07-22T10:11:14;23.90;99.90
45643;DHT22;31358;46.008;11.144;2023-07-22T10:13:40;23.80;99.90
45643;DHT22;31358;46.008;11.144;2023-07-22T10:16:07;23.70;99.90
45643;DHT22;31358;46.008;11.144;2023-07-22T10:18:34;23.80;99.90
45643;DHT22;31358;46.008;11.144;2023-07-22T10:21:00;24.10;99.90
45643;DHT22;31358;46.008;11.144;2023-07-22T10:23:27;24.60;99.90
45643;DHT22;31358;46.008;11.144;2023-07-22T10:25:53;24.70;99.90
45643;DHT22;31358;46.008;11.144;2023-07-22T10:28:21;24.30;99.90
45643;DHT22;31358;46.008;11.144;2023-07-22T10:30:47;24.30;99.90
45643;DHT22;31358;46.008;11.144;2023-07-22T10:33:13;24.40;99.90
45643;DHT22;31358;46.008;11.144;2023-07-22T10:35:43;24.60;99.90
45643;DHT22;31358;46.008;11.144;2023-07-22T10:38:14;25.00;99.90
45643;DHT22;31358;46.008;11.144;2023-07-22T10:40:50;25.00;99.70
45643;DHT22;31358;46.008;11.144;2023-07-22T10:43:18;25.10;99.50
45643;DHT22;31358;46.008;11.144;2023-07-22T10:45:50;25.20;99.10
45643;DHT22;31358;46.008;11.144;2023-07-22T10:48:17;25.30;98.70
45643;DHT22;31358;46.008;11.144;2023-07-22T10:50:45;25.40;98.50
45643;DHT22;31358;46.008;11.144;2023-07-22T10:56:11;24.70;98.40
45643;DHT22;31358;46.008;11.144;2023-07-22T11:12:07;25.30;99.10
45643;DHT22;31358;46.008;11.144;2023-07-22T11:15:03;25.70;99.60
45643;DHT22;31358;46.008;11.144;2023-07-22T11:17:31;25.70;99.60
45643;DHT22;31358;46.008;11.144;2023-07-22T11:20:00;25.80;98.90
45643;DHT22;31358;46.008;11.144;2023-07-22T11:22:27;25.90;99.50
45643;DHT22;31358;46.008;11.144;2023-07-22T11:24:55;26.30;99.30
45643;DHT22;31358;46.008;11.144;2023-07-22T11:27:21;26.40;98.60
45643;DHT22;31358;46.008;11.144;2023-07-22T11:29:50;26.10;98.60
45643;DHT22;31358;46.008;11.144;2023-07-22T11:32:18;26.20;99.20
45643;DHT22;31358;46.008;11.144;2023-07-22T11:34:45;26.00;98.80
45643;DHT22;31358;46.008;11.144;2023-07-22T11:37:10;26.60;99.90
45643;DHT22;31358;46.008;11.144;2023-07-22T11:39:36;26.60;98.60
45643;DHT22;31358;46.008;11.144;2023-07-22T11:42:03;26.60;98.20
45643;DHT22;31358;46.008;11.144;2023-07-22T11:44:30;26.90;98.20
45643;DHT22;31358;46.008;11.144;2023-07-22T11:49:34;26.80;97.20
45643;DHT22;31358;46.008;11.144;2023-07-22T11:52:11;26.90;97.50
45643;DHT22;31358;46.008;11.144;2023-07-22T11:54:39;27.40;97.70
45643;DHT22;31358;46.008;11.144;2023-07-22T11:57:20;27.60;97.80
45643;DHT22;31358;46.008;11.144;2023-07-22T11:59:50;27.60;97.50
45643;DHT22;31358;46.008;11.144;2023-07-22T12:02:27;27.60;96.80
45643;DHT22;31358;46.008;11.144;2023-07-22T12:05:04;27.80;96.80
45643;DHT22;31358;46.008;11.144;2023-07-22T12:07:34;27.70;97.10
45643;DHT22;31358;46.008;11.144;2023-07-22T12:10:02;27.80;96.20
45643;DHT22;31358;46.008;11.144;2023-07-22T12:12:47;28.00;96.90
45643;DHT22;31358;46.008;11.144;2023-07-22T12:15:21;28.10;96.20
45643;DHT22;31358;46.008;11.144;2023-07-22T12:17:59;28.20;96.30
45643;DHT22;31358;46.008;11.144;2023-07-22T12:20:26;28.60;97.30
45643;DHT22;31358;46.008;11.144;2023-07-22T12:22:53;28.80;95.60
45643;DHT22;31358;46.008;11.144;2023-07-22T12:25:19;28.70;95.70
45643;DHT22;31358;46.008;11.144;2023-07-22T12:27:44;28.80;95.30
45643;DHT22;31358;46.008;11.144;2023-07-22T12:30:11;28.70;95.20
45643;DHT22;31358;46.008;11.144;2023-07-22T12:32:37;28.80;95.20
45643;DHT22;31358;46.008;11.144;2023-07-22T12:35:03;28.80;96.40
45643;DHT22;31358;46.008;11.144;2023-07-22T12:37:29;28.40;94.90
45643;DHT22;31358;46.008;11.144;2023-07-22T12:39:56;28.60;96.50
45643;DHT22;31358;46.008;11.144;2023-07-22T12:42:22;29.00;96.80
45643;DHT22;31358;46.008;11.144;2023-07-22T12:44:47;29.10;97.20
45643;DHT22;31358;46.008;11.144;2023-07-22T12:47:13;29.20;96.50
45643;DHT22;31358;46.008;11.144;2023-07-22T12:49:38;28.20;96.30
45643;DHT22;31358;46.008;11.144;2023-07-22T12:52:04;27.70;97.60
45643;DHT22;31358;46.008;11.144;2023-07-22T12:54:37;27.60;96.50
45643;DHT22;31358;46.008;11.144;2023-07-22T12:57:03;27.60;96.00
45643;DHT22;31358;46.008;11.144;2023-07-22T12:59:29;27.60;96.10
45643;DHT22;31358;46.008;11.144;2023-07-22T13:01:55;27.80;95.60
45643;DHT22;31358;46.008;11.144;2023-07-22T13:04:23;28.20;94.80
45643;DHT22;31358;46.008;11.144;2023-07-22T13:06:50;28.20;95.80
45643;DHT22;31358;46.008;11.144;2023-07-22T13:09:17;27.70;94.40
45643;DHT22;31358;46.008;11.144;2023-07-22T13:11:43;28.00;94.70
45643;DHT22;31358;46.008;11.144;2023-07-22T13:14:08;28.30;95.90
45643;DHT22;31358;46.008;11.144;2023-07-22T13:16:34;28.50;95.90
45643;DHT22;31358;46.008;11.144;2023-07-22T13:19:00;28.40;95.10
45643;DHT22;31358;46.008;11.144;2023-07-22T13:21:28;28.40;95.10
45643;DHT22;31358;46.008;11.144;2023-07-22T13:23:54;28.70;97.00
45643;DHT22;31358;46.008;11.144;2023-07-22T13:26:20;28.80;96.40
45643;DHT22;31358;46.008;11.144;2023-07-22T13:28:45;28.40;95.20
45643;DHT22;31358;46.008;11.144;2023-07-22T13:31:11;28.10;96.00
45643;DHT22;31358;46.008;11.144;2023-07-22T13:33:37;28.30;96.80
45643;DHT22;31358;46.008;11.144;2023-07-22T13:36:02;27.90;96.60
45643;DHT22;31358;46.008;11.144;2023-07-22T13:38:28;27.90;97.70
45643;DHT22;31358;46.008;11.144;2023-07-22T13:40:54;28.20;97.50
45643;DHT22;31358;46.008;11.144;2023-07-22T13:43:19;28.40;97.90
45643;DHT22;31358;46.008;11.144;2023-07-22T13:45:45;28.60;97.10
45643;DHT22;31358;46.008;11.144;2023-07-22T13:48:11;28.80;96.20
45643;DHT22;31358;46.008;11.144;2023-07-22T13:50:37;29.20;97.50
45643;DHT22;31358;46.008;11.144;2023-07-22T13:53:03;29.20;97.50
45643;DHT22;31358;46.008;11.144;2023-07-22T13:55:29;29.10;97.10
45643;DHT22;31358;46.008;11.144;2023-07-22T13:57:54;29.30;96.50
45643;DHT22;31358;46.008;11.144;2023-07-22T14:00:20;29.10;96.50
45643;DHT22;31358;46.008;11.144;2023-07-22T14:02:46;29.00;97.00
45643;DHT22;31358;46.008;11.144;2023-07-22T14:05:11;28.90;96.60
45643;DHT22;31358;46.008;11.144;2023-07-22T14:07:38;28.40;96.20
45643;DHT22;31358;46.008;11.144;2023-07-22T14:10:05;27.90;96.10
45643;DHT22;31358;46.008;11.144;2023-07-22T14:12:31;27.70;97.10
45643;DHT22;31358;46.008;11.144;2023-07-22T14:14:57;27.50;97.30
45643;DHT22;31358;46.008;11.144;2023-07-22T14:17:22;27.60;97.50
45643;DHT22;31358;46.008;11.144;2023-07-22T14:19:48;27.80;97.80
45643;DHT22;31358;46.008;11.144;2023-07-22T14:22:14;28.20;97.90
45643;DHT22;31358;46.008;11.144;2023-07-22T14:24:39;28.60;98.10
45643;DHT22;31358;46.008;11.144;2023-07-22T14:27:05;28.40;97.90
45643;DHT22;31358;46.008;11.144;2023-07-22T14:29:31;27.70;98.20
45643;DHT22;31358;46.008;11.144;2023-07-22T14:31:57;27.10;98.30
45643;DHT22;31358;46.008;11.144;2023-07-22T14:34:23;26.90;98.70
45643;DHT22;31358;46.008;11.144;2023-07-22T14:36:49;26.80;98.40
45643;DHT22;31358;46.008;11.144;2023-07-22T14:39:15;26.80;98.70
45643;DHT22;31358;46.008;11.144;2023-07-22T14:41:41;26.90;98.80
45643;DHT22;31358;46.008;11.144;2023-07-22T14:44:10;26.90;99.60
45643;DHT22;31358;46.008;11.144;2023-07-22T14:46:36;26.60;99.60
45643;DHT22;31358;46.008;11.144;2023-07-22T14:49:03;26.40;99.70
45643;DHT22;31358;46.008;11.144;2023-07-22T14:51:29;26.40;99.90
45643;DHT22;31358;46.008;11.144;2023-07-22T14:53:54;26.30;99.90
45643;DHT22;31358;46.008;11.144;2023-07-22T14:56:20;26.10;99.90
45643;DHT22;31358;46.008;11.144;2023-07-22T14:58:45;25.90;99.90
45643;DHT22;31358;46.008;11.144;2023-07-22T15:01:11;25.80;99.90
45643;DHT22;31358;46.008;11.144;2023-07-22T15:03:37;25.70;99.90
45643;DHT22;31358;46.008;11.144;2023-07-22T15:06:06;25.90;99.90
45643;DHT22;31358;46.008;11.144;2023-07-22T15:08:32;25.90;99.90
45643;DHT22;31358;46.008;11.144;2023-07-22T15:10:58;26.30;99.90
45643;DHT22;31358;46.008;11.144;2023-07-22T15:13:23;26.80;99.90
45643;DHT22;31358;46.008;11.144;2023-07-22T15:15:49;27.10;99.90
45643;DHT22;31358;46.008;11.144;2023-07-22T15:18:15;27.20;99.40
45643;DHT22;31358;46.008;11.144;2023-07-22T15:20:40;27.70;99.90
45643;DHT22;31358;46.008;11.144;2023-07-22T15:23:06;27.80;99.20
45643;DHT22;31358;46.008;11.144;2023-07-22T15:25:32;27.90;97.70
45643;DHT22;31358;46.008;11.144;2023-07-22T15:27:58;27.90;97.90
45643;DHT22;31358;46.008;11.144;2023-07-22T15:30:23;28.30;98.80
45643;DHT22;31358;46.008;11.144;2023-07-22T15:32:49;28.50;98.70